sensor_id;sensor_type;location;lat;lon;timestamp;P1;durP1;ratioP1;P2;durP2;ratioP2
76617;SDS011;65509;42.816;74.648;2024-01-10T00:01:12;35.05;;;14.18;;
76617;SDS011;65509;42.816;74.648;2024-01-10T00:03:37;48.88;;;23.20;;
76617;SDS011;65509;42.816;74.648;2024-01-10T00:06:03;54.85;;;22.75;;
76617;SDS011;65509;42.816;74.648;2024-01-10T00:08:28;48.05;;;19.90;;
76617;SDS011;65509;42.816;74.648;2024-01-10T00:10:53;40.08;;;19.08;;
76617;SDS011;65509;42.816;74.648;2024-01-10T00:13:19;48.65;;;19.98;;
76617;SDS011;65509;42.816;74.648;2024-01-10T00:15:45;39.58;;;16.65;;
76617;SDS011;65509;42.816;74.648;2024-01-10T00:18:11;50.10;;;16.08;;
76617;SDS011;65509;42.816;74.648;2024-01-10T00:20:36;32.30;;;13.10;;
76617;SDS011;65509;42.816;74.648;2024-01-10T00:23:01;39.45;;;13.27;;
76617;SDS011;65509;42.816;74.648;2024-01-10T00:25:27;36.35;;;13.35;;
76617;SDS011;65509;42.816;74.648;2024-01-10T00:27:52;31.95;;;10.90;;
76617;SDS011;65509;42.816;74.648;2024-01-10T00:30:18;20.38;;;8.70;;
76617;SDS011;65509;42.816;74.648;2024-01-10T00:32:43;36.80;;;10.85;;
76617;SDS011;65509;42.816;74.648;2024-01-10T00:35:08;42.15;;;12.25;;
76617;SDS011;65509;42.816;74.648;2024-01-10T00:37:35;40.03;;;10.27;;
76617;SDS011;65509;42.816;74.648;2024-01-10T00:40:01;57.40;;;10.38;;
76617;SDS011;65509;42.816;74.648;2024-01-10T00:42:26;26.00;;;8.57;;
76617;SDS011;65509;42.816;74.648;2024-01-10T00:44:52;28.90;;;10.00;;
76617;SDS011;65509;42.816;74.648;2024-01-10T00:47:17;31.88;;;11.50;;
76617;SDS011;65509;42.816;74.648;2024-01-10T00:49:43;39.13;;;10.80;;
76617;SDS011;65509;42.816;74.648;2024-01-10T00:52:08;47.78;;;12.18;;
76617;SDS011;65509;42.816;74.648;2024-01-10T00:54:33;28.33;;;9.38;;
76617;SDS011;65509;42.816;74.648;2024-01-10T00:56:59;37.63;;;10.55;;
76617;SDS011;65509;42.816;74.648;2024-01-10T00:59:24;31.92;;;10.82;;
76617;SDS011;65509;42.816;74.648;2024-01-10T01:01:50;28.48;;;9.45;;
76617;SDS011;65509;42.816;74.648;2024-01-10T02:31:04;29.90;;;9.32;;
76617;SDS011;65509;42.816;74.648;2024-01-10T02:33:30;43.35;;;15.95;;
76617;SDS011;65509;42.816;74.648;2024-01-10T02:35:55;38.78;;;16.23;;
76617;SDS011;65509;42.816;74.648;2024-01-10T02:38:21;46.80;;;19.73;;
76617;SDS011;65509;42.816;74.648;2024-01-10T02:40:48;54.97;;;15.02;;
76617;SDS011;65509;42.816;74.648;2024-01-10T02:43:13;37.83;;;11.63;;
76617;SDS011;65509;42.816;74.648;2024-01-10T02:45:39;50.10;;;10.05;;
76617;SDS011;65509;42.816;74.648;2024-01-10T02:48:04;33.05;;;10.05;;
76617;SDS011;65509;42.816;74.648;2024-01-10T02:50:30;43.63;;;9.20;;
76617;SDS011;65509;42.816;74.648;2024-01-10T02:52:55;26.90;;;4.88;;
76617;SDS011;65509;42.816;74.648;2024-01-10T02:55:21;31.63;;;7.07;;
76617;SDS011;65509;42.816;74.648;2024-01-10T02:57:46;24.20;;;4.50;;
76617;SDS011;65509;42.816;74.648;2024-01-10T03:00:12;27.27;;;4.95;;
76617;SDS011;65509;42.816;74.648;2024-01-10T03:02:38;54.55;;;6.20;;
76617;SDS011;65509;42.816;74.648;2024-01-10T03:05:03;31.05;;;4.65;;
76617;SDS011;65509;42.816;74.648;2024-01-10T03:07:29;45.30;;;5.28;;
76617;SDS011;65509;42.816;74.648;2024-01-10T03:09:54;23.80;;;4.68;;
76617;SDS011;65509;42.816;74.648;2024-01-10T03:12:20;28.30;;;4.70;;
76617;SDS011;65509;42.816;74.648;2024-01-10T03:14:45;33.08;;;9.70;;
76617;SDS011;65509;42.816;74.648;2024-01-10T03:17:11;31.75;;;10.30;;
76617;SDS011;65509;42.816;74.648;2024-01-10T03:19:36;55.00;;;8.80;;
76617;SDS011;65509;42.816;74.648;2024-01-10T03:22:07;27.70;;;8.60;;
76617;SDS011;65509;42.816;74.648;2024-01-10T03:24:33;43.78;;;8.05;;
76617;SDS011;65509;42.816;74.648;2024-01-10T03:26:58;55.38;;;12.90;;
76617;SDS011;65509;42.816;74.648;2024-01-10T03:29:23;41.67;;;11.55;;
76617;SDS011;65509;42.816;74.648;2024-01-10T03:31:49;32.83;;;10.50;;
76617;SDS011;65509;42.816;74.648;2024-01-10T03:34:14;41.92;;;15.05;;
76617;SDS011;65509;42.816;74.648;2024-01-10T03:36:42;57.03;;;13.00;;
76617;SDS011;65509;42.816;74.648;2024-01-10T03:39:07;33.17;;;7.50;;
76617;SDS011;65509;42.816;74.648;2024-01-10T03:41:33;43.30;;;7.88;;
76617;SDS011;65509;42.816;74.648;2024-01-10T03:43:58;29.33;;;6.35;;
76617;SDS011;65509;42.816;74.648;2024-01-10T03:46:23;28.55;;;7.43;;
76617;SDS011;65509;42.816;74.648;2024-01-10T03:48:49;24.25;;;6.50;;
76617;SDS011;65509;42.816;74.648;2024-01-10T03:51:18;35.78;;;9.80;;
76617;SDS011;65509;42.816;74.648;2024-01-10T03:53:44;44.45;;;10.73;;
76617;SDS011;65509;42.816;74.648;2024-01-10T03:56:09;28.33;;;8.38;;
76617;SDS011;65509;42.816;74.648;2024-01-10T03:58:35;41.83;;;7.45;;
76617;SDS011;65509;42.816;74.648;2024-01-10T04:01:04;27.30;;;6.07;;
76617;SDS011;65509;42.816;74.648;2024-01-10T04:03:29;39.97;;;6.78;;
76617;SDS011;65509;42.816;74.648;2024-01-10T04:05:55;23.40;;;6.43;;
76617;SDS011;65509;42.816;74.648;2024-01-10T04:08:20;37.88;;;6.97;;
76617;SDS011;65509;42.816;74.648;2024-01-10T04:10:45;34.88;;;7.25;;
76617;SDS011;65509;42.816;74.648;2024-01-10T04:13:11;35.05;;;7.03;;
76617;SDS011;65509;42.816;74.648;2024-01-10T04:15:36;56.30;;;8.10;;
76617;SDS011;65509;42.816;74.648;2024-01-10T04:18:01;23.98;;;5.88;;
76617;SDS011;65509;42.816;74.648;2024-01-10T04:20:28;47.08;;;6.65;;
76617;SDS011;65509;42.816;74.648;2024-01-10T04:22:53;30.77;;;5.45;;
76617;SDS011;65509;42.816;74.648;2024-01-10T04:25:18;28.80;;;5.00;;
76617;SDS011;65509;42.816;74.648;2024-01-10T04:27:44;44.25;;;4.97;;
76617;SDS011;65509;42.816;74.648;2024-01-10T04:30:09;33.45;;;3.92;;
76617;SDS011;65509;42.816;74.648;2024-01-10T04:32:35;47.60;;;5.68;;
76617;SDS011;65509;42.816;74.648;2024-01-10T04:35:00;31.17;;;5.05;;
76617;SDS011;65509;42.816;74.648;2024-01-10T04:37:26;40.03;;;5.53;;
76617;SDS011;65509;42.816;74.648;2024-01-10T04:39:51;40.53;;;5.18;;
76617;SDS011;65509;42.816;74.648;2024-01-10T04:42:17;25.00;;;4.13;;
76617;SDS011;65509;42.816;74.648;2024-01-10T04:44:42;52.55;;;5.38;;
76617;SDS011;65509;42.816;74.648;2024-01-10T04:47:08;37.03;;;5.47;;
76617;SDS011;65509;42.816;74.648;2024-01-10T04:49:33;50.65;;;6.10;;
76617;SDS011;65509;42.816;74.648;2024-01-10T04:51:58;28.23;;;6.10;;
76617;SDS011;65509;42.816;74.648;2024-01-10T04:54:24;22.58;;;4.68;;
76617;SDS011;65509;42.816;74.648;2024-01-10T04:56:49;28.40;;;6.22;;
76617;SDS011;65509;42.816;74.648;2024-01-10T04:59:15;33.25;;;6.93;;
76617;SDS011;65509;42.816;74.648;2024-01-10T05:01:40;46.45;;;7.10;;
76617;SDS011;65509;42.816;74.648;2024-01-10T05:04:05;31.85;;;6.00;;
76617;SDS011;65509;42.816;74.648;2024-01-10T05:06:31;43.78;;;8.55;;
76617;SDS011;65509;42.816;74.648;2024-01-10T05:08:57;39.38;;;9.48;;
76617;SDS011;65509;42.816;74.648;2024-01-10T05:11:23;41.45;;;9.40;;
76617;SDS011;65509;42.816;74.648;2024-01-10T05:13:49;44.65;;;11.80;;
76617;SDS011;65509;42.816;74.648;2024-01-10T05:16:15;32.58;;;6.80;;
76617;SDS011;65509;42.816;74.648;2024-01-10T05:18:40;58.05;;;6.68;;
76617;SDS011;65509;42.816;74.648;2024-01-10T05:21:05;28.38;;;5.18;;
76617;SDS011;65509;42.816;74.648;2024-01-10T05:23:31;24.65;;;5.00;;
76617;SDS011;65509;42.816;74.648;2024-01-10T05:25:56;33.33;;;6.93;;
76617;SDS011;65509;42.816;74.648;2024-01-10T05:28:22;36.75;;;5.32;;
76617;SDS011;65509;42.816;74.648;2024-01-10T05:30:48;52.00;;;6.22;;
76617;SDS011;65509;42.816;74.648;2024-01-10T05:33:13;30.42;;;5.20;;
76617;SDS011;65509;42.816;74.648;2024-01-10T05:35:39;49.90;;;6.78;;
76617;SDS011;65509;42.816;74.648;2024-01-10T05:38:04;30.33;;;4.70;;
76617;SDS011;65509;42.816;74.648;2024-01-10T05:40:30;30.58;;;4.18;;
76617;SDS011;65509;42.816;74.648;2024-01-10T05:42:56;40.38;;;5.38;;
76617;SDS011;65509;42.816;74.648;2024-01-10T05:45:22;27.38;;;4.32;;
76617;SDS011;65509;42.816;74.648;2024-01-10T05:47:47;52.42;;;5.78;;
76617;SDS011;65509;42.816;74.648;2024-01-10T05:50:13;37.10;;;5.00;;
76617;SDS011;65509;42.816;74.648;2024-01-10T05:52:39;44.42;;;5.57;;
76617;SDS011;65509;42.816;74.648;2024-01-10T05:55:04;40.53;;;7.43;;
76617;SDS011;65509;42.816;74.648;2024-01-10T05:57:31;28.42;;;5.47;;
76617;SDS011;65509;42.816;74.648;2024-01-10T05:59:57;32.30;;;4.15;;
76617;SDS011;65509;42.816;74.648;2024-01-10T06:02:23;36.28;;;4.65;;
76617;SDS011;65509;42.816;74.648;2024-01-10T06:04:49;49.85;;;5.50;;
76617;SDS011;65509;42.816;74.648;2024-01-10T06:07:15;35.95;;;3.80;;
76617;SDS011;65509;42.816;74.648;2024-01-10T06:09:40;51.38;;;5.28;;
76617;SDS011;65509;42.816;74.648;2024-01-10T06:12:06;41.90;;;5.38;;
76617;SDS011;65509;42.816;74.648;2024-01-10T06:14:32;45.97;;;5.22;;
76617;SDS011;65509;42.816;74.648;2024-01-10T06:16:57;36.58;;;4.65;;
76617;SDS011;65509;42.816;74.648;2024-01-10T06:19:24;44.53;;;5.40;;
76617;SDS011;65509;42.816;74.648;2024-01-10T06:21:50;64.00;;;6.90;;
76617;SDS011;65509;42.816;74.648;2024-01-10T06:24:17;36.38;;;5.60;;
76617;SDS011;65509;42.816;74.648;2024-01-10T06:26:42;56.58;;;6.30;;
76617;SDS011;65509;42.816;74.648;2024-01-10T06:29:08;41.08;;;5.85;;
76617;SDS011;65509;42.816;74.648;2024-01-10T06:31:33;46.80;;;6.72;;
76617;SDS011;65509;42.816;74.648;2024-01-10T06:33:59;38.45;;;6.50;;
76617;SDS011;65509;42.816;74.648;2024-01-10T06:36:24;56.28;;;7.75;;
76617;SDS011;65509;42.816;74.648;2024-01-10T06:38:50;64.25;;;6.82;;
76617;SDS011;65509;42.816;74.648;2024-01-10T06:41:15;46.47;;;5.60;;
76617;SDS011;65509;42.816;74.648;2024-01-10T06:43:41;58.85;;;5.95;;
76617;SDS011;65509;42.816;74.648;2024-01-10T06:46:06;49.85;;;5.20;;
76617;SDS011;65509;42.816;74.648;2024-01-10T06:48:32;44.00;;;5.50;;
76617;SDS011;65509;42.816;74.648;2024-01-10T06:50:57;51.60;;;5.45;;
76617;SDS011;65509;42.816;74.648;2024-01-10T06:53:22;36.05;;;5.13;;
76617;SDS011;65509;42.816;74.648;2024-01-10T06:55:48;64.72;;;7.05;;
76617;SDS011;65509;42.816;74.648;2024-01-10T06:58:13;46.03;;;6.53;;
76617;SDS011;65509;42.816;74.648;2024-01-10T07:00:39;53.33;;;6.28;;
76617;SDS011;65509;42.816;74.648;2024-01-10T07:03:04;42.47;;;5.53;;
76617;SDS011;65509;42.816;74.648;2024-01-10T07:05:39;47.75;;;6.50;;
76617;SDS011;65509;42.816;74.648;2024-01-10T07:08:05;66.25;;;6.63;;
76617;SDS011;65509;42.816;74.648;2024-01-10T07:10:30;47.58;;;6.40;;
76617;SDS011;65509;42.816;74.648;2024-01-10T07:12:56;50.60;;;6.82;;
76617;SDS011;65509;42.816;74.648;2024-01-10T07:15:22;42.85;;;6.93;;
76617;SDS011;65509;42.816;74.648;2024-01-10T07:17:47;77.70;;;10.15;;
76617;SDS011;65509;42.816;74.648;2024-01-10T07:20:13;49.53;;;7.65;;
76617;SDS011;65509;42.816;74.648;2024-01-10T07:22:38;54.83;;;9.13;;
76617;SDS011;65509;42.816;74.648;2024-01-10T07:25:09;49.63;;;7.65;;
76617;SDS011;65509;42.816;74.648;2024-01-10T07:27:35;51.60;;;8.48;;
76617;SDS011;65509;42.816;74.648;2024-01-10T07:30:05;54.03;;;7.75;;
76617;SDS011;65509;42.816;74.648;2024-01-10T07:32:36;54.60;;;8.55;;
76617;SDS011;65509;42.816;74.648;2024-01-10T07:35:02;58.72;;;9.18;;
76617;SDS011;65509;42.816;74.648;2024-01-10T07:37:27;67.43;;;9.15;;
76617;SDS011;65509;42.816;74.648;2024-01-10T07:39:53;68.28;;;8.40;;
76617;SDS011;65509;42.816;74.648;2024-01-10T07:42:19;48.08;;;7.95;;
76617;SDS011;65509;42.816;74.648;2024-01-10T07:44:44;70.40;;;9.07;;
76617;SDS011;65509;42.816;74.648;2024-01-10T07:47:10;44.30;;;7.78;;
76617;SDS011;65509;42.816;74.648;2024-01-10T07:49:35;62.42;;;8.40;;
76617;SDS011;65509;42.816;74.648;2024-01-10T07:52:02;49.08;;;8.77;;
76617;SDS011;65509;42.816;74.648;2024-01-10T07:54:27;53.88;;;8.20;;
76617;SDS011;65509;42.816;74.648;2024-01-10T07:56:52;71.22;;;8.93;;
76617;SDS011;65509;42.816;74.648;2024-01-10T07:59:19;48.78;;;8.18;;
76617;SDS011;65509;42.816;74.648;2024-01-10T08:01:53;52.47;;;8.75;;
76617;SDS011;65509;42.816;74.648;2024-01-10T08:04:20;53.33;;;8.10;;
76617;SDS011;65509;42.816;74.648;2024-01-10T08:06:45;65.20;;;8.52;;
76617;SDS011;65509;42.816;74.648;2024-01-10T08:09:11;42.38;;;7.22;;
76617;SDS011;65509;42.816;74.648;2024-01-10T08:11:37;59.90;;;9.98;;
76617;SDS011;65509;42.816;74.648;2024-01-10T08:14:03;54.70;;;8.50;;
76617;SDS011;65509;42.816;74.648;2024-01-10T08:16:28;59.80;;;8.85;;
76617;SDS011;65509;42.816;74.648;2024-01-10T08:18:54;79.78;;;9.23;;
76617;SDS011;65509;42.816;74.648;2024-01-10T08:21:19;64.72;;;9.23;;
76617;SDS011;65509;42.816;74.648;2024-01-10T08:23:44;58.40;;;9.13;;
76617;SDS011;65509;42.816;74.648;2024-01-10T08:26:10;47.40;;;7.65;;
76617;SDS011;65509;42.816;74.648;2024-01-10T08:28:35;50.60;;;8.55;;
76617;SDS011;65509;42.816;74.648;2024-01-10T08:31:00;46.30;;;9.60;;
76617;SDS011;65509;42.816;74.648;2024-01-10T08:33:26;51.08;;;10.02;;
76617;SDS011;65509;42.816;74.648;2024-01-10T08:35:51;66.30;;;11.65;;
76617;SDS011;65509;42.816;74.648;2024-01-10T08:38:17;45.00;;;9.38;;
76617;SDS011;65509;42.816;74.648;2024-01-10T08:40:42;64.55;;;8.63;;
76617;SDS011;65509;42.816;74.648;2024-01-10T08:43:08;40.00;;;6.97;;
76617;SDS011;65509;42.816;74.648;2024-01-10T08:45:33;57.45;;;8.20;;
76617;SDS011;65509;42.816;74.648;2024-01-10T08:47:58;67.90;;;9.68;;
76617;SDS011;65509;42.816;74.648;2024-01-10T08:50:24;63.65;;;9.82;;
76617;SDS011;65509;42.816;74.648;2024-01-10T08:52:49;78.88;;;10.60;;
76617;SDS011;65509;42.816;74.648;2024-01-10T08:55:15;53.47;;;7.97;;
76617;SDS011;65509;42.816;74.648;2024-01-10T08:57:40;48.83;;;7.15;;
76617;SDS011;65509;42.816;74.648;2024-01-10T09:00:06;53.47;;;8.30;;
76617;SDS011;65509;42.816;74.648;2024-01-10T09:02:32;55.63;;;8.05;;
76617;SDS011;65509;42.816;74.648;2024-01-10T09:04:58;65.93;;;8.57;;
76617;SDS011;65509;42.816;74.648;2024-01-10T09:07:23;48.20;;;7.38;;
76617;SDS011;65509;42.816;74.648;2024-01-10T09:09:49;65.72;;;8.55;;
76617;SDS011;65509;42.816;74.648;2024-01-10T09:12:14;54.72;;;7.90;;
76617;SDS011;65509;42.816;74.648;2024-01-10T09:14:40;64.35;;;8.35;;
76617;SDS011;65509;42.816;74.648;2024-01-10T09:17:06;35.55;;;7.13;;
76617;SDS011;65509;42.816;74.648;2024-01-10T09:19:32;54.75;;;8.02;;
76617;SDS011;65509;42.816;74.648;2024-01-10T09:21:58;61.80;;;9.27;;
76617;SDS011;65509;42.816;74.648;2024-01-10T09:24:23;59.78;;;8.77;;
76617;SDS011;65509;42.816;74.648;2024-01-10T09:26:51;68.50;;;9.68;;
76617;SDS011;65509;42.816;74.648;2024-01-10T09:29:16;54.90;;;7.85;;
76617;SDS011;65509;42.816;74.648;2024-01-10T09:31:42;50.42;;;8.27;;
76617;SDS011;65509;42.816;74.648;2024-01-10T09:34:08;55.95;;;8.80;;
76617;SDS011;65509;42.816;74.648;2024-01-10T09:36:34;54.70;;;8.00;;
76617;SDS011;65509;42.816;74.648;2024-01-10T09:39:02;76.38;;;7.95;;
76617;SDS011;65509;42.816;74.648;2024-01-10T09:41:31;45.53;;;6.60;;
76617;SDS011;65509;42.816;74.648;2024-01-10T09:43:57;57.28;;;7.45;;
76617;SDS011;65509;42.816;74.648;2024-01-10T09:46:23;69.43;;;9.68;;
76617;SDS011;65509;42.816;74.648;2024-01-10T09:48:48;81.88;;;10.52;;
76617;SDS011;65509;42.816;74.648;2024-01-10T09:51:14;62.50;;;10.15;;
76617;SDS011;65509;42.816;74.648;2024-01-10T09:53:40;64.22;;;11.43;;
76617;SDS011;65509;42.816;74.648;2024-01-10T09:56:09;78.88;;;11.60;;
76617;SDS011;65509;42.816;74.648;2024-01-10T09:58:35;73.15;;;10.18;;
76617;SDS011;65509;42.816;74.648;2024-01-10T10:01:05;64.43;;;9.70;;
76617;SDS011;65509;42.816;74.648;2024-01-10T10:03:30;79.22;;;16.30;;
76617;SDS011;65509;42.816;74.648;2024-01-10T10:05:57;87.70;;;15.23;;
76617;SDS011;65509;42.816;74.648;2024-01-10T10:08:22;57.88;;;11.00;;
76617;SDS011;65509;42.816;74.648;2024-01-10T10:10:48;63.97;;;11.90;;
76617;SDS011;65509;42.816;74.648;2024-01-10T10:13:24;68.05;;;14.70;;
76617;SDS011;65509;42.816;74.648;2024-01-10T10:16:04;81.57;;;14.98;;
76617;SDS011;65509;42.816;74.648;2024-01-10T10:18:31;62.88;;;10.68;;
76617;SDS011;65509;42.816;74.648;2024-01-10T10:23:31;61.03;;;11.02;;
76617;SDS011;65509;42.816;74.648;2024-01-10T10:25:57;69.97;;;10.82;;
76617;SDS011;65509;42.816;74.648;2024-01-10T10:28:27;70.53;;;11.27;;
76617;SDS011;65509;42.816;74.648;2024-01-10T10:30:55;77.18;;;11.40;;
76617;SDS011;65509;42.816;74.648;2024-01-10T10:33:21;59.80;;;10.60;;
76617;SDS011;65509;42.816;74.648;2024-01-10T10:35:46;73.10;;;10.73;;
76617;SDS011;65509;42.816;74.648;2024-01-10T10:38:12;50.40;;;9.02;;
76617;SDS011;65509;42.816;74.648;2024-01-10T10:40:37;59.53;;;11.95;;
76617;SDS011;65509;42.816;74.648;2024-01-10T10:43:03;79.60;;;13.15;;
76617;SDS011;65509;42.816;74.648;2024-01-10T10:45:29;55.88;;;12.02;;
76617;SDS011;65509;42.816;74.648;2024-01-10T10:47:57;72.60;;;12.13;;
76617;SDS011;65509;42.816;74.648;2024-01-10T10:50:23;77.10;;;14.65;;
76617;SDS011;65509;42.816;74.648;2024-01-10T10:52:49;62.20;;;17.15;;
76617;SDS011;65509;42.816;74.648;2024-01-10T10:55:15;71.22;;;17.45;;
76617;SDS011;65509;42.816;74.648;2024-01-10T10:57:45;67.00;;;15.27;;
76617;SDS011;65509;42.816;74.648;2024-01-10T11:00:14;61.63;;;14.82;;
76617;SDS011;65509;42.816;74.648;2024-01-10T11:02:40;65.22;;;14.05;;
76617;SDS011;65509;42.816;74.648;2024-01-10T11:05:06;77.10;;;13.45;;
76617;SDS011;65509;42.816;74.648;2024-01-10T11:07:35;64.05;;;14.07;;
76617;SDS011;65509;42.816;74.648;2024-01-10T11:10:00;76.63;;;10.90;;
76617;SDS011;65509;42.816;74.648;2024-01-10T11:12:34;62.00;;;11.13;;
76617;SDS011;65509;42.816;74.648;2024-01-10T11:23:56;57.58;;;12.30;;
76617;SDS011;65509;42.816;74.648;2024-01-10T11:26:23;53.15;;;10.32;;
76617;SDS011;65509;42.816;74.648;2024-01-10T11:28:49;50.28;;;9.88;;
76617;SDS011;65509;42.816;74.648;2024-01-10T11:31:15;49.08;;;11.07;;
76617;SDS011;65509;42.816;74.648;2024-01-10T11:33:41;49.70;;;10.00;;
76617;SDS011;65509;42.816;74.648;2024-01-10T11:36:18;70.78;;;10.05;;
76617;SDS011;65509;42.816;74.648;2024-01-10T11:46:36;58.53;;;15.80;;
76617;SDS011;65509;42.816;74.648;2024-01-10T11:49:02;74.85;;;16.15;;
76617;SDS011;65509;42.816;74.648;2024-01-10T11:51:28;85.32;;;19.98;;
76617;SDS011;65509;42.816;74.648;2024-01-10T11:53:54;80.40;;;17.15;;
76617;SDS011;65509;42.816;74.648;2024-01-10T11:56:22;77.82;;;17.13;;
76617;SDS011;65509;42.816;74.648;2024-01-10T11:58:54;88.93;;;16.63;;
76617;SDS011;65509;42.816;74.648;2024-01-10T12:01:20;93.18;;;16.67;;
76617;SDS011;65509;42.816;74.648;2024-01-10T12:03:46;94.13;;;15.48;;
76617;SDS011;65509;42.816;74.648;2024-01-10T12:06:12;83.20;;;15.30;;
76617;SDS011;65509;42.816;74.648;2024-01-10T12:08:38;88.13;;;15.50;;
76617;SDS011;65509;42.816;74.648;2024-01-10T12:11:04;136.13;;;37.83;;
76617;SDS011;65509;42.816;74.648;2024-01-10T12:13:29;132.38;;;41.38;;
76617;SDS011;65509;42.816;74.648;2024-01-10T12:15:56;99.05;;;20.88;;
76617;SDS011;65509;42.816;74.648;2024-01-10T12:18:21;79.95;;;16.75;;
76617;SDS011;65509;42.816;74.648;2024-01-10T12:20:47;97.53;;;16.58;;
76617;SDS011;65509;42.816;74.648;2024-01-10T12:23:12;92.22;;;18.90;;
76617;SDS011;65509;42.816;74.648;2024-01-10T12:25:37;136.05;;;45.50;;
76617;SDS011;65509;42.816;74.648;2024-01-10T12:28:03;129.90;;;29.05;;
76617;SDS011;65509;42.816;74.648;2024-01-10T12:30:31;84.75;;;16.35;;
76617;SDS011;65509;42.816;74.648;2024-01-10T12:33:00;90.03;;;16.45;;
76617;SDS011;65509;42.816;74.648;2024-01-10T12:35:28;82.13;;;16.95;;
76617;SDS011;65509;42.816;74.648;2024-01-10T12:38:06;107.72;;;18.05;;
76617;SDS011;65509;42.816;74.648;2024-01-10T12:40:32;89.22;;;17.02;;
76617;SDS011;65509;42.816;74.648;2024-01-10T12:43:06;114.95;;;18.98;;
76617;SDS011;65509;42.816;74.648;2024-01-10T12:45:32;96.93;;;17.92;;
76617;SDS011;65509;42.816;74.648;2024-01-10T12:47:58;104.68;;;19.08;;
76617;SDS011;65509;42.816;74.648;2024-01-10T12:50:26;103.60;;;21.48;;
76617;SDS011;65509;42.816;74.648;2024-01-10T12:52:52;197.90;;;50.92;;
76617;SDS011;65509;42.816;74.648;2024-01-10T12:55:17;231.55;;;84.28;;
76617;SDS011;65509;42.816;74.648;2024-01-10T12:57:46;240.43;;;94.85;;
76617;SDS011;65509;42.816;74.648;2024-01-10T13:00:19;202.35;;;66.70;;
76617;SDS011;65509;42.816;74.648;2024-01-10T13:02:48;127.18;;;29.67;;
76617;SDS011;65509;42.816;74.648;2024-01-10T13:05:14;148.02;;;29.92;;
76617;SDS011;65509;42.816;74.648;2024-01-10T13:07:40;125.97;;;28.13;;
76617;SDS011;65509;42.816;74.648;2024-01-10T13:10:05;125.40;;;29.02;;
76617;SDS011;65509;42.816;74.648;2024-01-10T13:12:33;131.93;;;30.00;;
76617;SDS011;65509;42.816;74.648;2024-01-10T13:14:59;144.68;;;32.03;;
76617;SDS011;65509;42.816;74.648;2024-01-10T13:17:27;127.03;;;33.38;;
76617;SDS011;65509;42.816;74.648;2024-01-10T13:19:52;145.48;;;39.35;;
76617;SDS011;65509;42.816;74.648;2024-01-10T13:22:19;106.40;;;34.80;;
76617;SDS011;65509;42.816;74.648;2024-01-10T13:24:47;129.77;;;37.88;;
76617;SDS011;65509;42.816;74.648;2024-01-10T13:27:12;161.52;;;40.40;;
76617;SDS011;65509;42.816;74.648;2024-01-10T13:29:40;142.15;;;34.92;;
76617;SDS011;65509;42.816;74.648;2024-01-10T13:32:09;138.07;;;31.75;;
76617;SDS011;65509;42.816;74.648;2024-01-10T13:34:35;101.00;;;27.05;;
76617;SDS011;65509;42.816;74.648;2024-01-10T13:37:01;139.57;;;30.95;;
76617;SDS011;65509;42.816;74.648;2024-01-10T13:39:27;142.00;;;46.25;;
76617;SDS011;65509;42.816;74.648;2024-01-10T13:41:52;121.63;;;31.08;;
76617;SDS011;65509;42.816;74.648;2024-01-10T13:44:18;110.90;;;23.90;;
76617;SDS011;65509;42.816;74.648;2024-01-10T13:46:43;130.63;;;19.33;;
76617;SDS011;65509;42.816;74.648;2024-01-10T13:49:09;103.97;;;19.95;;
76617;SDS011;65509;42.816;74.648;2024-01-10T13:51:34;85.47;;;21.17;;
76617;SDS011;65509;42.816;74.648;2024-01-10T13:54:00;100.03;;;22.92;;
76617;SDS011;65509;42.816;74.648;2024-01-10T13:56:25;77.40;;;19.20;;
76617;SDS011;65509;42.816;74.648;2024-01-10T13:58:52;86.03;;;16.75;;
76617;SDS011;65509;42.816;74.648;2024-01-10T14:01:18;75.05;;;15.68;;
76617;SDS011;65509;42.816;74.648;2024-01-10T14:03:43;77.35;;;13.15;;
76617;SDS011;65509;42.816;74.648;2024-01-10T14:06:09;137.48;;;33.90;;
76617;SDS011;65509;42.816;74.648;2024-01-10T14:08:34;104.15;;;26.90;;
76617;SDS011;65509;42.816;74.648;2024-01-10T14:11:02;146.77;;;36.50;;
76617;SDS011;65509;42.816;74.648;2024-01-10T14:13:28;142.93;;;44.15;;
76617;SDS011;65509;42.816;74.648;2024-01-10T14:15:53;141.48;;;46.35;;
76617;SDS011;65509;42.816;74.648;2024-01-10T14:18:19;155.98;;;47.58;;
76617;SDS011;65509;42.816;74.648;2024-01-10T14:20:46;154.18;;;49.85;;
76617;SDS011;65509;42.816;74.648;2024-01-10T14:23:12;153.10;;;49.95;;
76617;SDS011;65509;42.816;74.648;2024-01-10T14:25:37;153.18;;;50.83;;
76617;SDS011;65509;42.816;74.648;2024-01-10T14:28:02;151.02;;;51.78;;
76617;SDS011;65509;42.816;74.648;2024-01-10T14:30:28;173.45;;;55.90;;
76617;SDS011;65509;42.816;74.648;2024-01-10T14:32:53;145.43;;;51.00;;
76617;SDS011;65509;42.816;74.648;2024-01-10T14:35:19;146.25;;;55.47;;
76617;SDS011;65509;42.816;74.648;2024-01-10T14:37:45;183.63;;;59.47;;
76617;SDS011;65509;42.816;74.648;2024-01-10T14:43:12;175.43;;;47.20;;
76617;SDS011;65509;42.816;74.648;2024-01-10T14:45:41;152.20;;;41.42;;
76617;SDS011;65509;42.816;74.648;2024-01-10T14:51:25;178.15;;;28.67;;
76617;SDS011;65509;42.816;74.648;2024-01-10T14:56:54;148.73;;;26.75;;
76617;SDS011;65509;42.816;74.648;2024-01-10T14:59:19;114.43;;;27.05;;
76617;SDS011;65509;42.816;74.648;2024-01-10T15:01:45;115.00;;;27.88;;
76617;SDS011;65509;42.816;74.648;2024-01-10T15:04:11;123.57;;;28.25;;
76617;SDS011;65509;42.816;74.648;2024-01-10T15:06:41;149.10;;;28.60;;
76617;SDS011;65509;42.816;74.648;2024-01-10T15:09:07;171.10;;;25.73;;
76617;SDS011;65509;42.816;74.648;2024-01-10T15:11:33;128.15;;;22.50;;
76617;SDS011;65509;42.816;74.648;2024-01-10T15:14:02;113.82;;;21.05;;
76617;SDS011;65509;42.816;74.648;2024-01-10T15:16:28;150.65;;;22.17;;
76617;SDS011;65509;42.816;74.648;2024-01-10T15:18:56;143.63;;;22.23;;
76617;SDS011;65509;42.816;74.648;2024-01-10T15:21:22;131.57;;;20.35;;
76617;SDS011;65509;42.816;74.648;2024-01-10T15:23:47;128.48;;;19.95;;
76617;SDS011;65509;42.816;74.648;2024-01-10T15:26:16;155.95;;;22.20;;
76617;SDS011;65509;42.816;74.648;2024-01-10T15:28:43;195.23;;;25.02;;
76617;SDS011;65509;42.816;74.648;2024-01-10T15:31:13;157.10;;;21.10;;
76617;SDS011;65509;42.816;74.648;2024-01-10T15:33:39;140.02;;;22.75;;
76617;SDS011;65509;42.816;74.648;2024-01-10T15:36:09;171.63;;;21.02;;
76617;SDS011;65509;42.816;74.648;2024-01-10T15:38:41;150.68;;;20.08;;
76617;SDS011;65509;42.816;74.648;2024-01-10T15:41:07;149.73;;;19.90;;
76617;SDS011;65509;42.816;74.648;2024-01-10T15:43:32;134.57;;;19.23;;
76617;SDS011;65509;42.816;74.648;2024-01-10T15:45:57;195.32;;;30.48;;
76617;SDS011;65509;42.816;74.648;2024-01-10T15:48:23;182.77;;;21.15;;
76617;SDS011;65509;42.816;74.648;2024-01-10T15:50:48;202.60;;;35.50;;
76617;SDS011;65509;42.816;74.648;2024-01-10T15:53:14;177.68;;;23.42;;
76617;SDS011;65509;42.816;74.648;2024-01-10T15:55:42;154.75;;;19.80;;
76617;SDS011;65509;42.816;74.648;2024-01-10T15:58:07;151.35;;;25.23;;
76617;SDS011;65509;42.816;74.648;2024-01-10T16:00:33;162.20;;;30.17;;